Valparaiso, FL

3:32 AM CDT on September 20, 2014 (GMT -0500)
Destin-Fort Walton Beach | Change Station
CLOSE
Current Station
Airport
Location: Destin,
Elevation: 23 ft
Nearby Weather Stations

Elev 23 ft 30.39 °N, 86.47 °W | Updated 39 minutes ago

Clear
Clear
74 °F
Feels Like 74 °F
N
8
Wind Variable Wind from NE

Today
High -- | Low -- °F
--% Chance of Precip.
Yesterday
High -- | Low -- °F
Precip. -- in
6:33 AM 6:45 PM
Waning Crescent, 13% visible
Pressure 29.96 in
Visibility 10.0 miles
Clouds Clear
Dew Point 69 °F
Humidity 85%
Rainfall 0.00 in
Snow Depth Not available.
UV 0 out of 12
Pollen 8.90 out of 12
Air Quality Not available.
Flu Activity Not available.
METAR KDTS 200753Z AUTO 05007KT 10SM CLR 23/21 A2996 RMK AO2 SLP144 T02330206 TSNO

More Conditions Fewer Conditions

Pressure 29.96 in
Visibility 10.0 miles
Clouds Clear
Dew Point 69 °F
Humidity 85%
Rainfall 0.00 in
Snow Depth Not available.
UV 0 out of 12
Pollen 8.90 out of 12
Air Quality Not available.
Flu Activity Not available.
METAR KDTS 200753Z AUTO 05007KT 10SM CLR 23/21 A2996 RMK AO2 SLP144 T02330206 TSNO

More Conditions Fewer Conditions

10-Day Weather Forecast

Almanac

Astronomy

Sep. 20, 2014 Rise Set
Actual Time 6:33 AM CDT 6:45 PM CDT
Civil Twilight 6:09 AM CDT 7:09 PM CDT
Nautical Twilight 5:41 AM CDT 7:37 PM CDT
Astronomical Twilight 5:12 AM CDT 8:05 PM CDT
Moon 3:23 AM CDT 4:38 PM CDT
Length of Visible Light 12h 59m
Length of Day
12h 11m
Tomorrow will be 1m 50s shorter.
Waning Crescent, 13% of the Moon is Illuminated
Today
Waning Crescent
Sep 24
New
Oct 1
First Quarter
Oct 8
Full
Oct 15
Last Quarter

Today's Extremes

State Highs State Lows

Community

WunderPhotos

Upload Photos

1,754,793 photos uploaded!

WunderBlogs® & News

Nearby

Air Quality

  Air Quality AQ Index Pollutant
Yesterday Good
PM2.5
Saturday Good
OZONE

Snow Depth

Station Depth Elevation
No new snow has been reported.

Earthquake Activity

City Distance Mag. Time & Date
No recent earthquake activity has been reported nearby.
Minimum magnitude displayed is 2.5.

Coastal Water Temperatures

Place Temperature
No Stations Reporting

Nearby Weather Stations